Time;durP1;ratioP1;P1;durP2;ratioP2;P2;SDS_P1;SDS_P2;PMS_P1;PMS_P2;Temp;Humidity;BMP_temperature;BMP_pressure;BME280_temperature;BME280_humidity;BME280_pressure;Samples;Min_cycle;Max_cycle;Signal;HPM_P1;HPM_P2
2023/06/06 00:01:43;;;;;;;;;;;9.20;74.60;;;;;;6168399;23;19923;-89
2023/06/06 00:04:11;;;;;;;;;;;9.20;74.70;;;;;;6190429;23;19916;-90
2023/06/06 00:06:38;;;;;;;;;;;9.20;74.70;;;;;;6162609;23;19958;-89
2023/06/06 00:09:26;;;;;;;;;;;9.20;74.70;;;;;;6189620;23;19919;-89
2023/06/06 00:11:52;;;;;;;;;;;9.20;74.50;;;;;;6192512;23;19915;-89
2023/06/06 00:14:18;;;;;;;;;;;9.20;74.60;;;;;;6191590;23;20000;-89
2023/06/06 00:16:55;;;;;;;;;;;9.10;74.70;;;;;;6186491;23;19911;-90
2023/06/06 00:19:22;;;;;;;;;;;9.00;74.80;;;;;;6177572;23;20003;-89
2023/06/06 00:21:53;;;;;;;;;;;9.00;74.80;;;;;;6217254;23;19926;-89
2023/06/06 00:24:24;;;;;;;;;;;9.00;75.00;;;;;;6166758;23;20235;-88
2023/06/06 00:26:53;;;;;;;;;;;9.00;74.90;;;;;;6186191;23;19954;-90
2023/06/06 00:29:18;;;;;;;;;;;9.00;75.10;;;;;;6190161;23;19987;-88
2023/06/06 00:31:49;;;;;;;;;;;9.00;75.40;;;;;;6193404;23;19922;-89
2023/06/06 00:34:15;;;;;;;;;;;9.00;75.30;;;;;;6199505;23;19915;-88
2023/06/06 00:36:46;;;;;;;;;;;9.10;75.40;;;;;;6187928;23;19973;-91
2023/06/06 00:39:12;;;;;;;;;;;9.10;75.10;;;;;;6191942;23;19923;-90
2023/06/06 00:41:40;;;;;;;;;;;9.10;75.00;;;;;;6193584;23;20514;-89
2023/06/06 00:44:06;;;;;;;;;;;9.00;74.70;;;;;;6176884;22;19922;-89
2023/06/06 00:46:32;;;;;;;;;;;9.00;75.10;;;;;;6187157;23;19912;-93
2023/06/06 00:49:05;;;;;;;;;;;9.00;75.10;;;;;;6188152;23;19987;-90
2023/06/06 00:51:39;;;;;;;;;;;9.00;74.90;;;;;;6192280;23;19920;-89
2023/06/06 00:54:12;;;;;;;;;;;9.00;74.90;;;;;;6215074;23;19916;-88
2023/06/06 00:56:45;;;;;;;;;;;8.90;74.90;;;;;;6184441;23;19924;-90
2023/06/06 00:59:17;;;;;;;;;;;8.90;75.10;;;;;;6191005;23;19919;-90
2023/06/06 01:01:43;;;;;;;;;;;8.90;75.40;;;;;;6192278;23;19938;-89
2023/06/06 01:04:13;;;;;;;;;;;9.00;75.50;;;;;;6190170;23;20319;-89
2023/06/06 01:06:42;;;;;;;;;;;9.00;75.50;;;;;;6186834;23;19923;-89
2023/06/06 01:09:12;;;;;;;;;;;9.00;75.90;;;;;;6189529;23;20469;-89
2023/06/06 01:11:46;;;;;;;;;;;9.00;75.70;;;;;;6191916;23;20157;-89
2023/06/06 01:14:53;;;;;;;;;;;9.00;75.90;;;;;;6216310;23;19916;-89
2023/06/06 01:17:27;;;;;;;;;;;9.00;75.90;;;;;;6075234;23;19928;-91
2023/06/06 01:19:59;;;;;;;;;;;9.00;75.70;;;;;;6073304;23;19927;-89
2023/06/06 01:22:35;;;;;;;;;;;9.00;76.00;;;;;;6129387;23;20254;-89
2023/06/06 01:25:04;;;;;;;;;;;9.00;76.10;;;;;;6191999;23;19923;-89
2023/06/06 01:27:33;;;;;;;;;;;9.10;76.10;;;;;;6171026;23;19962;-89
2023/06/06 01:30:01;;;;;;;;;;;9.10;75.90;;;;;;6193381;23;19915;-89
2023/06/06 01:32:48;;;;;;;;;;;9.10;75.90;;;;;;6190193;23;19915;-89
2023/06/06 01:35:26;;;;;;;;;;;9.00;75.80;;;;;;6217447;23;19916;-89
2023/06/06 01:38:17;;;;;;;;;;;9.00;76.10;;;;;;6185597;23;19915;-90
2023/06/06 01:40:44;;;;;;;;;;;9.00;76.20;;;;;;6192419;23;19923;-89
2023/06/06 01:43:13;;;;;;;;;;;9.10;76.30;;;;;;6190796;23;19919;-89
2023/06/06 01:45:42;;;;;;;;;;;9.20;76.30;;;;;;6217120;23;19916;-88
2023/06/06 01:48:26;;;;;;;;;;;9.20;76.00;;;;;;6168672;23;20334;-89
2023/06/06 01:51:05;;;;;;;;;;;9.20;75.90;;;;;;6168628;23;19923;-89
2023/06/06 01:53:36;;;;;;;;;;;9.20;75.80;;;;;;6177474;23;19926;-89
2023/06/06 01:56:21;;;;;;;;;;;9.20;75.80;;;;;;6192154;23;19950;-92
2023/06/06 01:58:48;;;;;;;;;;;9.20;75.70;;;;;;6197162;23;20322;-89
2023/06/06 02:01:17;;;;;;;;;;;9.10;75.50;;;;;;6192201;23;19965;-89
2023/06/06 02:03:43;;;;;;;;;;;9.00;75.60;;;;;;6189410;23;19974;-89
2023/06/06 02:06:19;;;;;;;;;;;9.00;75.80;;;;;;6191837;23;19971;-94
2023/06/06 02:08:51;;;;;;;;;;;9.00;75.90;;;;;;6172078;23;19943;-90
2023/06/06 02:11:19;;;;;;;;;;;9.10;75.90;;;;;;6194519;23;19923;-89
2023/06/06 02:13:47;;;;;;;;;;;9.00;75.90;;;;;;6174321;22;19916;-88
2023/06/06 02:16:18;;;;;;;;;;;9.00;76.00;;;;;;6171042;23;19916;-92
2023/06/06 02:18:49;;;;;;;;;;;9.10;75.90;;;;;;6164551;23;19916;-88
2023/06/06 02:21:25;;;;;;;;;;;9.10;75.80;;;;;;6194081;23;19919;-89
2023/06/06 02:23:51;;;;;;;;;;;9.10;76.20;;;;;;6177018;23;19916;-89
2023/06/06 02:26:21;;;;;;;;;;;9.10;76.40;;;;;;6191557;23;19916;-92
2023/06/06 02:28:56;;;;;;;;;;;9.20;76.10;;;;;;6168977;22;19943;-89
2023/06/06 02:31:26;;;;;;;;;;;9.20;76.30;;;;;;6194684;23;19915;-89
2023/06/06 02:36:38;;;;;;;;;;;9.20;76.30;;;;;;6213279;23;20122;-90
2023/06/06 02:39:09;;;;;;;;;;;9.20;76.40;;;;;;6193112;23;19951;-90
2023/06/06 02:41:43;;;;;;;;;;;9.20;76.60;;;;;;6171142;23;19916;-89
2023/06/06 02:44:12;;;;;;;;;;;9.20;76.50;;;;;;6178477;23;20331;-89
2023/06/06 02:46:38;;;;;;;;;;;9.30;76.80;;;;;;6188472;23;19919;-90
2023/06/06 02:49:03;;;;;;;;;;;9.30;76.70;;;;;;6177372;23;19915;-90
2023/06/06 02:51:30;;;;;;;;;;;9.30;76.80;;;;;;6168014;23;19923;-89
2023/06/06 02:54:01;;;;;;;;;;;9.40;76.50;;;;;;6167106;23;19916;-90
2023/06/06 02:56:49;;;;;;;;;;;9.40;76.40;;;;;;6186651;23;19915;-89
2023/06/06 02:59:28;;;;;;;;;;;9.40;76.30;;;;;;6178269;23;19916;-88
2023/06/06 03:01:57;;;;;;;;;;;9.40;76.40;;;;;;6169270;23;20339;-91
2023/06/06 03:04:22;;;;;;;;;;;9.40;76.50;;;;;;6174860;23;19919;-89
2023/06/06 03:06:51;;;;;;;;;;;9.30;76.30;;;;;;6212108;23;19926;-93
2023/06/06 03:09:27;;;;;;;;;;;9.30;76.00;;;;;;6191116;23;19922;-90
2023/06/06 03:11:53;;;;;;;;;;;9.30;76.20;;;;;;6193316;23;19926;-89
2023/06/06 03:14:22;;;;;;;;;;;9.30;76.50;;;;;;6167064;23;19923;-88
2023/06/06 03:16:51;;;;;;;;;;;9.30;76.50;;;;;;6160817;23;19912;-93
2023/06/06 03:19:23;;;;;;;;;;;9.30;76.60;;;;;;6216267;23;19915;-89
2023/06/06 03:21:49;;;;;;;;;;;9.30;76.80;;;;;;6192982;23;19915;-89
2023/06/06 03:24:19;;;;;;;;;;;9.30;76.60;;;;;;6166775;23;20299;-88
2023/06/06 03:26:50;;;;;;;;;;;9.40;76.50;;;;;;6186669;23;19911;-94
2023/06/06 03:29:18;;;;;;;;;;;9.40;76.50;;;;;;6189695;23;19982;-89
2023/06/06 03:32:05;;;;;;;;;;;9.40;76.50;;;;;;6168640;23;20279;-89
2023/06/06 03:34:30;;;;;;;;;;;9.40;76.50;;;;;;6202498;23;20338;-89
2023/06/06 03:36:56;;;;;;;;;;;9.40;76.30;;;;;;6162498;23;19916;-89
2023/06/06 03:39:27;;;;;;;;;;;9.40;76.60;;;;;;6193521;23;19920;-89
2023/06/06 03:41:53;;;;;;;;;;;9.40;76.40;;;;;;6218545;23;20286;-89
2023/06/06 03:44:18;;;;;;;;;;;9.40;76.40;;;;;;6189280;23;19916;-89
2023/06/06 03:46:44;;;;;;;;;;;9.40;76.50;;;;;;6187569;23;19939;-93
2023/06/06 03:49:13;;;;;;;;;;;9.40;76.50;;;;;;6189827;23;19966;-89
2023/06/06 03:51:51;;;;;;;;;;;9.40;76.30;;;;;;6194998;23;19951;-89
2023/06/06 03:54:19;;;;;;;;;;;9.40;76.30;;;;;;6176787;23;19922;-89
2023/06/06 03:56:45;;;;;;;;;;;9.40;76.20;;;;;;6161770;23;19911;-92
2023/06/06 03:59:12;;;;;;;;;;;9.40;76.50;;;;;;6199355;23;20257;-90
2023/06/06 04:01:41;;;;;;;;;;;9.40;76.40;;;;;;6217905;23;19920;-89
2023/06/06 04:04:08;;;;;;;;;;;9.40;76.20;;;;;;6166489;23;19916;-89
2023/06/06 04:06:33;;;;;;;;;;;9.50;76.20;;;;;;6212926;23;19912;-91
2023/06/06 04:09:18;;;;;;;;;;;;;;;;;;;;;
2023/06/06 04:11:53;;;;;;;;;;;9.50;76.30;;;;;;6197184;23;19915;-88
2023/06/06 04:14:19;;;;;;;;;;;9.50;76.50;;;;;;6191351;23;19915;-89
2023/06/06 04:16:47;;;;;;;;;;;9.60;76.30;;;;;;6187058;23;19912;-92
2023/06/06 04:19:15;;;;;;;;;;;9.60;76.60;;;;;;6199833;23;20392;-89
2023/06/06 04:21:41;;;;;;;;;;;9.60;76.40;;;;;;6192879;23;19919;-88
2023/06/06 04:24:06;;;;;;;;;;;9.70;76.20;;;;;;6191023;23;19922;-90
2023/06/06 04:26:40;;;;;;;;;;;9.70;76.40;;;;;;6187785;23;19922;-93
2023/06/06 04:29:12;;;;;;;;;;;9.70;76.30;;;;;;6163248;23;20006;-89
2023/06/06 04:31:40;;;;;;;;;;;9.80;76.20;;;;;;6193107;23;20354;-88
2023/06/06 04:34:09;;;;;;;;;;;9.80;76.40;;;;;;6178469;23;19966;-93
2023/06/06 04:36:41;;;;;;;;;;;9.80;76.30;;;;;;6188005;23;19911;-88
2023/06/06 04:39:08;;;;;;;;;;;9.90;76.40;;;;;;6266710;22;19922;-89
2023/06/06 04:41:34;;;;;;;;;;;10.00;76.50;;;;;;6217785;23;19923;-89
2023/06/06 04:44:06;;;;;;;;;;;10.00;76.50;;;;;;6190847;23;20010;-89
2023/06/06 04:46:43;;;;;;;;;;;10.00;76.50;;;;;;6189840;23;19976;-88
2023/06/06 04:49:13;;;;;;;;;;;10.10;76.50;;;;;;6175261;23;19966;-90
2023/06/06 04:51:45;;;;;;;;;;;10.20;76.40;;;;;;6192624;23;19915;-89
2023/06/06 04:54:23;;;;;;;;;;;10.20;76.50;;;;;;6138656;23;19920;-89
2023/06/06 04:57:00;;;;;;;;;;;10.20;76.30;;;;;;6187340;23;19915;-90
2023/06/06 04:59:32;;;;;;;;;;;10.40;76.30;;;;;;6161838;23;19966;-89
2023/06/06 05:02:02;;;;;;;;;;;10.50;76.30;;;;;;6190490;23;19965;-89
2023/06/06 05:04:31;;;;;;;;;;;10.60;76.60;;;;;;6189401;23;19919;-90
2023/06/06 05:06:57;;;;;;;;;;;10.80;77.10;;;;;;6183370;23;19986;-90
2023/06/06 05:09:23;;;;;;;;;;;11.00;76.70;;;;;;6190436;23;19919;-88
2023/06/06 05:11:51;;;;;;;;;;;11.10;76.50;;;;;;6192553;23;19951;-89
2023/06/06 05:14:24;;;;;;;;;;;11.30;76.20;;;;;;6215472;23;19958;-89
2023/06/06 05:16:52;;;;;;;;;;;11.50;77.20;;;;;;6162214;23;19973;-92
2023/06/06 05:19:25;;;;;;;;;;;11.90;76.10;;;;;;6175749;23;19986;-87
2023/06/06 05:21:53;;;;;;;;;;;12.00;75.50;;;;;;6191695;23;19919;-89
2023/06/06 05:24:21;;;;;;;;;;;12.20;74.80;;;;;;6174495;23;19922;-88
2023/06/06 05:26:47;;;;;;;;;;;12.40;74.30;;;;;;6185560;23;19912;-92
2023/06/06 05:29:16;;;;;;;;;;;12.50;74.00;;;;;;6187732;22;19915;-89
2023/06/06 05:32:04;;;;;;;;;;;12.50;74.20;;;;;;6191412;23;19916;-92
2023/06/06 05:34:41;;;;;;;;;;;12.80;74.30;;;;;;6121635;22;19916;-89
2023/06/06 05:37:13;;;;;;;;;;;12.90;72.80;;;;;;6164119;23;19919;-89
2023/06/06 05:39:44;;;;;;;;;;;12.90;72.90;;;;;;6191825;23;20288;-92
2023/06/06 05:42:21;;;;;;;;;;;12.90;72.30;;;;;;6202380;23;19986;-89
2023/06/06 05:44:50;;;;;;;;;;;12.90;72.20;;;;;;6191383;23;20108;-87
2023/06/06 05:47:28;;;;;;;;;;;13.00;72.00;;;;;;6160450;23;19916;-88
2023/06/06 05:50:20;;;;;;;;;;;12.90;71.60;;;;;;6169450;23;19922;-89
2023/06/06 05:52:45;;;;;;;;;;;13.00;72.80;;;;;;6175797;23;19916;-87
2023/06/06 05:55:28;;;;;;;;;;;13.00;71.50;;;;;;6209900;23;20312;-91
2023/06/06 05:58:12;;;;;;;;;;;12.90;71.40;;;;;;6142177;23;19925;-89
2023/06/06 06:00:58;;;;;;;;;;;12.80;71.60;;;;;;6220132;23;19966;-89
2023/06/06 06:03:28;;;;;;;;;;;12.80;72.20;;;;;;6153833;23;20250;-88
2023/06/06 06:06:09;;;;;;;;;;;12.80;72.50;;;;;;6186721;23;20412;-89
2023/06/06 06:08:38;;;;;;;;;;;12.80;72.20;;;;;;6179954;23;19919;-88
2023/06/06 06:11:19;;;;;;;;;;;;;;;;;;;;;
2023/06/06 06:13:48;;;;;;;;;;;12.80;72.10;;;;;;6200567;22;19949;-88
2023/06/06 06:16:54;;;;;;;;;;;12.90;72.20;;;;;;6242334;22;19911;-92
2023/06/06 06:19:41;;;;;;;;;;;;;;;;;;;;;
2023/06/06 06:22:51;;;;;;;;;;;13.10;71.80;;;;;;6175555;23;20432;-92
2023/06/06 06:28:55;;;;;;;;;;;13.20;72.00;;;;;;6173193;23;20331;-88
2023/06/06 06:31:35;;;;;;;;;;;13.30;71.20;;;;;;6174413;23;19916;-89
2023/06/06 06:34:01;;;;;;;;;;;13.20;71.40;;;;;;6154538;23;20027;-88
2023/06/06 06:36:37;;;;;;;;;;;13.30;71.10;;;;;;6128582;23;20643;-92
2023/06/06 06:39:05;;;;;;;;;;;13.40;71.50;;;;;;6129131;23;19927;-88
2023/06/06 06:41:34;;;;;;;;;;;13.50;71.20;;;;;;6192791;23;20348;-88
2023/06/06 06:44:10;;;;;;;;;;;13.50;71.40;;;;;;6165901;23;19915;-90
2023/06/06 06:46:39;;;;;;;;;;;13.60;71.10;;;;;;6163637;23;19912;-90
2023/06/06 06:49:20;;;;;;;;;;;13.50;70.90;;;;;;6202232;23;19915;-89
2023/06/06 06:51:51;;;;;;;;;;;13.40;70.90;;;;;;6218984;23;19919;-89
2023/06/06 06:54:22;;;;;;;;;;;13.40;71.70;;;;;;6201952;22;19923;-88
2023/06/06 06:56:53;;;;;;;;;;;13.40;71.10;;;;;;6185338;23;19911;-91
2023/06/06 06:59:22;;;;;;;;;;;13.50;71.80;;;;;;6152457;23;19915;-88
2023/06/06 07:01:50;;;;;;;;;;;13.70;72.00;;;;;;6217580;23;20315;-88
2023/06/06 07:04:19;;;;;;;;;;;13.80;70.80;;;;;;6216346;23;19922;-87
2023/06/06 07:06:46;;;;;;;;;;;13.70;70.50;;;;;;6093860;23;19911;-89
2023/06/06 07:09:18;;;;;;;;;;;13.70;70.60;;;;;;6160582;23;19936;-87
2023/06/06 07:12:10;;;;;;;;;;;13.70;70.20;;;;;;6244073;23;19915;-87
2023/06/06 07:15:07;;;;;;;;;;;13.60;70.50;;;;;;6150511;23;19915;-88
2023/06/06 07:17:36;;;;;;;;;;;13.50;70.20;;;;;;6183045;23;19943;-89
2023/06/06 07:20:38;;;;;;;;;;;13.50;70.50;;;;;;6193297;23;19923;-88
2023/06/06 07:23:07;;;;;;;;;;;13.50;70.50;;;;;;6163466;23;19965;-87
2023/06/06 07:25:33;;;;;;;;;;;13.50;70.40;;;;;;6192579;23;19919;-88
2023/06/06 07:28:05;;;;;;;;;;;13.50;70.20;;;;;;6183508;23;19915;-90
2023/06/06 07:30:41;;;;;;;;;;;13.60;70.70;;;;;;6193907;23;20338;-90
2023/06/06 07:36:14;;;;;;;;;;;13.90;70.30;;;;;;6209690;23;19926;-91
2023/06/06 07:38:39;;;;;;;;;;;13.90;69.50;;;;;;6187823;23;19922;-87
2023/06/06 07:41:05;;;;;;;;;;;13.90;69.40;;;;;;6181990;23;20006;-88
2023/06/06 07:43:31;;;;;;;;;;;13.90;69.80;;;;;;6161766;23;19915;-88
2023/06/06 07:46:02;;;;;;;;;;;13.90;69.90;;;;;;6191320;23;20318;-88
2023/06/06 07:48:37;;;;;;;;;;;14.00;70.50;;;;;;6198930;23;19915;-89
2023/06/06 07:51:06;;;;;;;;;;;14.10;70.30;;;;;;6208088;23;20447;-88
2023/06/06 07:53:32;;;;;;;;;;;14.10;69.50;;;;;;6156074;23;19923;-89
2023/06/06 07:56:00;;;;;;;;;;;14.10;69.70;;;;;;6182349;23;19916;-88
2023/06/06 07:58:45;;;;;;;;;;;14.20;69.80;;;;;;6180866;23;19939;-88
2023/06/06 08:01:13;;;;;;;;;;;14.20;69.90;;;;;;6215984;23;19919;-87
2023/06/06 08:03:54;;;;;;;;;;;14.30;69.40;;;;;;6168238;22;19915;-88
2023/06/06 08:06:42;;;;;;;;;;;14.40;69.70;;;;;;6194280;23;19922;-90
2023/06/06 08:12:55;;;;;;;;;;;14.60;69.50;;;;;;6131508;23;19915;-90
2023/06/06 08:15:22;;;;;;;;;;;14.60;69.40;;;;;;6191186;23;19994;-88
2023/06/06 08:17:50;;;;;;;;;;;14.70;69.90;;;;;;6139473;22;19915;-89
2023/06/06 08:20:18;;;;;;;;;;;14.80;68.90;;;;;;6207236;23;19916;-87
2023/06/06 08:22:49;;;;;;;;;;;14.70;68.40;;;;;;6213594;23;20005;-89
2023/06/06 08:25:15;;;;;;;;;;;14.60;68.80;;;;;;6215444;23;19922;-86
2023/06/06 08:27:43;;;;;;;;;;;14.50;68.70;;;;;;6207571;23;19919;-86
2023/06/06 08:30:32;;;;;;;;;;;14.50;69.50;;;;;;6176791;23;20039;-91
2023/06/06 08:32:58;;;;;;;;;;;14.60;69.90;;;;;;6187009;23;19922;-88
2023/06/06 08:35:29;;;;;;;;;;;14.70;68.40;;;;;;6175516;23;20723;-91
2023/06/06 08:38:00;;;;;;;;;;;14.60;68.40;;;;;;6112964;23;19916;-89
2023/06/06 08:43:36;;;;;;;;;;;14.60;68.40;;;;;;6134850;23;19946;-88
2023/06/06 08:46:05;;;;;;;;;;;14.40;68.60;;;;;;6110364;23;19955;-90
2023/06/06 08:48:43;;;;;;;;;;;14.40;69.00;;;;;;6124558;23;20255;-87
2023/06/06 08:51:09;;;;;;;;;;;14.40;69.40;;;;;;6133398;23;19920;-87
2023/06/06 08:53:42;;;;;;;;;;;14.50;68.70;;;;;;6131505;23;19946;-88
2023/06/06 08:56:12;;;;;;;;;;;14.40;69.00;;;;;;6109681;23;19951;-91
2023/06/06 08:58:46;;;;;;;;;;;14.50;69.50;;;;;;6146188;23;20270;-88
2023/06/06 09:01:13;;;;;;;;;;;14.60;69.00;;;;;;6158544;23;19924;-87
2023/06/06 09:03:43;;;;;;;;;;;14.70;68.80;;;;;;6102122;23;19916;-86
2023/06/06 09:06:34;;;;;;;;;;;14.80;68.40;;;;;;5046524;23;10000540;-92
2023/06/06 09:09:18;;;;;;;;;;;14.70;68.50;;;;;;6152165;23;20345;-88
2023/06/06 09:12:05;;;;;;;;;;;14.70;68.90;;;;;;5100261;23;10000991;-92
2023/06/06 09:14:37;;;;;;;;;;;14.70;68.00;;;;;;6131971;23;19920;-89
2023/06/06 09:17:03;;;;;;;;;;;14.70;68.10;;;;;;6150063;23;19965;-87
2023/06/06 09:19:32;;;;;;;;;;;14.70;68.10;;;;;;6170349;23;19919;-89
2023/06/06 09:21:59;;;;;;;;;;;14.70;68.10;;;;;;6162620;23;19923;-88
2023/06/06 09:24:28;;;;;;;;;;;14.70;68.70;;;;;;6186317;23;19938;-89
2023/06/06 09:26:57;;;;;;;;;;;14.80;68.20;;;;;;6132774;23;19912;-87
2023/06/06 09:29:24;;;;;;;;;;;14.70;67.70;;;;;;6159532;23;19920;-89
2023/06/06 09:31:50;;;;;;;;;;;14.70;68.00;;;;;;6163344;23;20253;-87
2023/06/06 09:34:46;;;;;;;;;;;14.80;68.40;;;;;;6160822;23;19916;-87
2023/06/06 09:41:46;;;;;;;;;;;14.90;68.00;;;;;;6171059;23;19922;-88
2023/06/06 09:44:33;;;;;;;;;;;15.00;68.30;;;;;;6155784;23;20242;-88
2023/06/06 09:47:00;;;;;;;;;;;15.10;68.00;;;;;;6173289;23;19919;-87
2023/06/06 09:49:55;;;;;;;;;;;15.10;67.40;;;;;;6160734;23;19923;-93
2023/06/06 09:52:37;;;;;;;;;;;15.10;67.20;;;;;;6124717;23;19919;-89
2023/06/06 09:55:13;;;;;;;;;;;15.20;67.80;;;;;;6162139;23;19939;-88
2023/06/06 09:57:44;;;;;;;;;;;15.30;67.80;;;;;;6130043;23;20247;-88
2023/06/06 10:00:18;;;;;;;;;;;15.30;67.30;;;;;;6133583;23;19916;-88
2023/06/06 10:02:45;;;;;;;;;;;15.40;67.10;;;;;;6107188;23;19964;-87
2023/06/06 10:05:14;;;;;;;;;;;15.40;67.20;;;;;;6132758;23;19920;-87
2023/06/06 10:07:46;;;;;;;;;;;15.30;67.40;;;;;;6125009;23;19967;-84
2023/06/06 10:10:20;;;;;;;;;;;15.20;67.20;;;;;;6133410;23;19944;-87
2023/06/06 10:12:49;;;;;;;;;;;15.20;67.40;;;;;;6110290;23;20019;-88
2023/06/06 10:15:18;;;;;;;;;;;15.30;67.60;;;;;;6132692;23;19920;-88
2023/06/06 10:17:54;;;;;;;;;;;15.30;67.60;;;;;;6118238;23;19926;-90
2023/06/06 10:20:31;;;;;;;;;;;15.30;67.50;;;;;;6132492;23;19916;-90
2023/06/06 10:23:00;;;;;;;;;;;15.30;67.30;;;;;;6089365;23;19916;-88
2023/06/06 10:25:55;;;;;;;;;;;15.40;67.80;;;;;;6128477;23;20315;-89
2023/06/06 10:28:36;;;;;;;;;;;15.50;67.50;;;;;;6127854;23;19923;-88
2023/06/06 10:31:07;;;;;;;;;;;15.50;67.00;;;;;;6132439;23;19924;-88
2023/06/06 10:33:46;;;;;;;;;;;15.50;67.20;;;;;;6131014;23;19920;-87
2023/06/06 10:39:35;;;;;;;;;;;15.50;67.50;;;;;;6039402;23;19917;-88
2023/06/06 10:42:19;;;;;;;;;;;15.50;67.30;;;;;;6015932;23;20293;-89
2023/06/06 10:48:43;;;;;;;;;;;15.40;66.90;;;;;;6032272;23;20249;-92
2023/06/06 10:51:34;;;;;;;;;;;15.50;67.90;;;;;;6012891;23;20390;-88
2023/06/06 10:54:16;;;;;;;;;;;15.50;67.80;;;;;;6063155;23;19946;-86
2023/06/06 10:56:43;;;;;;;;;;;15.60;67.30;;;;;;6162693;23;19912;-88
2023/06/06 10:59:10;;;;;;;;;;;15.60;66.90;;;;;;6172619;23;20019;-87
2023/06/06 11:01:45;;;;;;;;;;;15.50;67.10;;;;;;6186421;23;19920;-88
2023/06/06 11:04:21;;;;;;;;;;;15.60;67.10;;;;;;6144607;23;19999;-89
2023/06/06 11:06:47;;;;;;;;;;;15.50;66.90;;;;;;6153531;23;19915;-90
2023/06/06 11:09:20;;;;;;;;;;;15.50;66.70;;;;;;6184222;23;19982;-87
2023/06/06 11:11:46;;;;;;;;;;;15.60;67.10;;;;;;6186610;23;19939;-88
2023/06/06 11:14:18;;;;;;;;;;;15.60;67.40;;;;;;6159674;23;19916;-89
2023/06/06 11:17:45;;;;;;;;;;;15.60;66.50;;;;;;6157083;23;20571;-90
2023/06/06 11:20:33;;;;;;;;;;;15.50;67.00;;;;;;6168008;23;19923;-88
2023/06/06 11:23:29;;;;;;;;;;;;;;;;;;;;;
2023/06/06 11:26:00;;;;;;;;;;;15.60;67.20;;;;;;6238041;23;20350;-90
2023/06/06 11:28:26;;;;;;;;;;;15.40;66.80;;;;;;6153519;23;20347;-88
2023/06/06 11:31:09;;;;;;;;;;;15.40;67.00;;;;;;6165484;23;19930;-89
2023/06/06 11:36:53;;;;;;;;;;;15.40;67.20;;;;;;6183533;23;19911;-90
2023/06/06 11:39:25;;;;;;;;;;;15.50;67.50;;;;;;6162476;23;19939;-90
2023/06/06 11:41:51;;;;;;;;;;;15.50;66.80;;;;;;6163182;23;19959;-87
2023/06/06 11:44:17;;;;;;;;;;;15.50;66.80;;;;;;6133014;23;19923;-88
2023/06/06 11:49:52;;;;;;;;;;;15.50;67.20;;;;;;6153787;23;19915;-88
2023/06/06 11:52:30;;;;;;;;;;;15.50;66.60;;;;;;6161652;23;19965;-88
2023/06/06 11:55:04;;;;;;;;;;;15.50;67.00;;;;;;6163803;23;19997;-88
2023/06/06 11:57:33;;;;;;;;;;;15.60;67.80;;;;;;6114096;23;19959;-89
2023/06/06 12:00:26;;;;;;;;;;;15.80;67.20;;;;;;6176020;23;20365;-89
2023/06/06 12:02:53;;;;;;;;;;;15.60;66.70;;;;;;6121821;23;20353;-88
2023/06/06 12:05:30;;;;;;;;;;;15.60;67.10;;;;;;6133928;23;19928;-89
2023/06/06 12:07:59;;;;;;;;;;;15.60;66.50;;;;;;6151837;23;19916;-89
2023/06/06 12:13:51;;;;;;;;;;;15.60;67.00;;;;;;6141083;23;20341;-90
2023/06/06 12:16:24;;;;;;;;;;;15.50;66.90;;;;;;6128985;23;19956;-89
2023/06/06 12:18:50;;;;;;;;;;;15.50;67.00;;;;;;6132477;23;19962;-87
2023/06/06 12:21:36;;;;;;;;;;;15.50;66.30;;;;;;6135802;23;20258;-90
2023/06/06 12:24:37;;;;;;;;;;;15.50;66.40;;;;;;6084063;23;19923;-88
2023/06/06 12:27:10;;;;;;;;;;;15.60;66.90;;;;;;6160155;23;19991;-88
2023/06/06 12:29:55;;;;;;;;;;;15.60;67.20;;;;;;6181776;23;19916;-86
2023/06/06 12:32:29;;;;;;;;;;;15.80;66.20;;;;;;6101834;23;19920;-88
2023/06/06 12:35:01;;;;;;;;;;;15.80;66.70;;;;;;6133591;23;19916;-88
2023/06/06 12:37:39;;;;;;;;;;;15.80;66.00;;;;;;6124425;23;19982;-86
2023/06/06 12:40:37;;;;;;;;;;;15.60;65.60;;;;;;6207300;23;20340;-88
2023/06/06 12:43:12;;;;;;;;;;;15.60;66.70;;;;;;6133270;23;20003;-85
2023/06/06 12:45:38;;;;;;;;;;;15.60;66.70;;;;;;6132923;23;19916;-88
2023/06/06 12:48:10;;;;;;;;;;;15.70;66.40;;;;;;6122986;23;20250;-89
2023/06/06 12:50:40;;;;;;;;;;;15.70;66.20;;;;;;6133011;23;19923;-87
2023/06/06 12:53:10;;;;;;;;;;;15.60;66.20;;;;;;6205355;23;20254;-86
2023/06/06 12:55:38;;;;;;;;;;;15.60;66.10;;;;;;6132957;23;19916;-87
2023/06/06 12:58:07;;;;;;;;;;;15.60;65.60;;;;;;6128882;23;19970;-87
2023/06/06 13:00:33;;;;;;;;;;;15.60;66.00;;;;;;6161668;23;20289;-86
2023/06/06 13:03:19;;;;;;;;;;;15.60;66.60;;;;;;6158965;23;19923;-87
2023/06/06 13:05:45;;;;;;;;;;;15.70;66.20;;;;;;6185887;23;19926;-87
2023/06/06 13:08:11;;;;;;;;;;;15.80;66.60;;;;;;6162416;23;19924;-88
2023/06/06 13:10:37;;;;;;;;;;;15.80;66.20;;;;;;6161192;23;19916;-88
2023/06/06 13:13:02;;;;;;;;;;;15.70;65.70;;;;;;6149480;23;20349;-86
2023/06/06 13:15:31;;;;;;;;;;;15.60;66.30;;;;;;6162111;23;20318;-87
2023/06/06 13:17:57;;;;;;;;;;;15.60;66.20;;;;;;6140438;23;19916;-86
2023/06/06 13:20:30;;;;;;;;;;;15.60;66.50;;;;;;6162538;23;19922;-88
2023/06/06 13:22:55;;;;;;;;;;;15.60;66.90;;;;;;6152595;23;19923;-86
2023/06/06 13:25:21;;;;;;;;;;;15.80;66.30;;;;;;6162243;23;19920;-86
2023/06/06 13:27:49;;;;;;;;;;;15.80;66.40;;;;;;6153002;23;20345;-84
2023/06/06 13:30:15;;;;;;;;;;;15.80;66.10;;;;;;6162003;23;19943;-86
2023/06/06 13:32:47;;;;;;;;;;;15.60;65.80;;;;;;6128615;23;19916;-87
2023/06/06 13:35:15;;;;;;;;;;;15.60;66.50;;;;;;6162653;23;19916;-86
2023/06/06 13:37:41;;;;;;;;;;;15.60;66.50;;;;;;6179387;23;19920;-87
2023/06/06 13:40:07;;;;;;;;;;;15.80;66.40;;;;;;6162060;23;19955;-86
2023/06/06 13:42:32;;;;;;;;;;;15.80;66.10;;;;;;6143100;23;19923;-88
2023/06/06 13:48:31;;;;;;;;;;;15.90;66.00;;;;;;6190045;23;20389;-86
2023/06/06 13:50:59;;;;;;;;;;;15.90;65.90;;;;;;6161733;23;19916;-86
2023/06/06 13:53:25;;;;;;;;;;;15.80;65.60;;;;;;6185147;23;19916;-85
2023/06/06 13:55:51;;;;;;;;;;;15.60;65.40;;;;;;6186980;23;19920;-85
2023/06/06 13:58:22;;;;;;;;;;;15.60;65.20;;;;;;6170442;23;19923;-85
2023/06/06 14:00:48;;;;;;;;;;;15.50;65.90;;;;;;6156173;23;19927;-86
2023/06/06 14:03:17;;;;;;;;;;;15.50;66.30;;;;;;6131946;23;19926;-84
2023/06/06 14:05:43;;;;;;;;;;;15.50;66.50;;;;;;6158838;23;19955;-85
2023/06/06 14:08:10;;;;;;;;;;;15.60;65.90;;;;;;6124862;23;19967;-86
2023/06/06 14:10:38;;;;;;;;;;;15.60;66.60;;;;;;6158697;23;20305;-88
2023/06/06 14:13:03;;;;;;;;;;;15.60;66.70;;;;;;6157489;23;20250;-88
2023/06/06 14:15:29;;;;;;;;;;;15.70;66.30;;;;;;6134496;23;19952;-89
2023/06/06 14:18:01;;;;;;;;;;;15.80;65.80;;;;;;6134366;23;19979;-86
2023/06/06 14:20:36;;;;;;;;;;;15.80;66.20;;;;;;6111776;23;20365;-85
2023/06/06 14:23:04;;;;;;;;;;;15.80;66.40;;;;;;6131635;23;19966;-87
2023/06/06 14:25:30;;;;;;;;;;;15.80;66.60;;;;;;6159058;23;20424;-86
2023/06/06 14:28:00;;;;;;;;;;;15.90;66.10;;;;;;6147574;23;19916;-89
2023/06/06 14:30:29;;;;;;;;;;;15.90;65.90;;;;;;6111499;23;19923;-87
2023/06/06 14:33:04;;;;;;;;;;;15.90;66.40;;;;;;6157704;23;19916;-91
2023/06/06 14:35:44;;;;;;;;;;;16.00;66.10;;;;;;6134518;23;19986;-88
2023/06/06 14:38:18;;;;;;;;;;;16.00;65.90;;;;;;6126537;23;19959;-89
2023/06/06 14:40:53;;;;;;;;;;;16.00;66.30;;;;;;6135317;23;19916;-87
2023/06/06 14:43:18;;;;;;;;;;;16.00;66.10;;;;;;6115272;23;19988;-86
2023/06/06 14:45:54;;;;;;;;;;;16.00;65.20;;;;;;6112348;23;19916;-88
2023/06/06 14:48:27;;;;;;;;;;;16.00;65.90;;;;;;6109074;23;19921;-88
2023/06/06 14:50:53;;;;;;;;;;;16.00;65.30;;;;;;6111294;23;19917;-85
2023/06/06 14:53:19;;;;;;;;;;;16.00;65.50;;;;;;6133551;23;19949;-86
2023/06/06 14:55:45;;;;;;;;;;;15.90;65.30;;;;;;6208441;23;20431;-87
2023/06/06 14:58:18;;;;;;;;;;;16.00;65.90;;;;;;6112318;23;20278;-96
2023/06/06 15:00:48;;;;;;;;;;;16.00;65.50;;;;;;6111003;23;19916;-89
2023/06/06 15:03:16;;;;;;;;;;;16.10;65.70;;;;;;6097740;23;19916;-87
2023/06/06 15:05:44;;;;;;;;;;;16.10;65.30;;;;;;6136735;23;20238;-86
2023/06/06 15:08:10;;;;;;;;;;;16.10;65.60;;;;;;6150006;23;19916;-86
2023/06/06 15:10:36;;;;;;;;;;;16.00;65.80;;;;;;6158733;23;19923;-87
2023/06/06 15:13:04;;;;;;;;;;;16.10;65.50;;;;;;6128846;23;19916;-89
2023/06/06 15:15:30;;;;;;;;;;;16.10;65.40;;;;;;6134075;23;20007;-88
2023/06/06 15:17:56;;;;;;;;;;;16.20;65.50;;;;;;6125264;23;20089;-87
2023/06/06 15:20:25;;;;;;;;;;;16.10;64.70;;;;;;6109731;23;19922;-89
2023/06/06 15:23:06;;;;;;;;;;;16.10;65.10;;;;;;6132370;23;19920;-89
2023/06/06 15:25:32;;;;;;;;;;;16.10;64.60;;;;;;6159119;23;20024;-86
2023/06/06 15:27:58;;;;;;;;;;;16.20;65.10;;;;;;6111093;23;20466;-85
2023/06/06 15:30:29;;;;;;;;;;;16.10;65.00;;;;;;6159090;23;19920;-90
2023/06/06 15:32:55;;;;;;;;;;;16.10;64.80;;;;;;6156789;23;19916;-88
2023/06/06 15:35:28;;;;;;;;;;;16.20;64.80;;;;;;6109212;23;20322;-87